createdAt,value
2022-12-14T00:03:51.770Z,-11.90
2022-12-14T00:13:58.746Z,-12.50
2022-12-14T00:24:02.513Z,-13.00
2022-12-14T00:34:08.070Z,-13.30
2022-12-14T00:44:12.044Z,-13.60
2022-12-14T00:54:17.604Z,-13.80
2022-12-14T01:04:22.677Z,-13.90
2022-12-14T01:14:27.994Z,-14.10
2022-12-14T01:24:31.814Z,-14.20
2022-12-14T01:34:36.986Z,-14.30
2022-12-14T01:45:00.193Z,-14.50
2022-12-14T01:55:10.038Z,-14.70
2022-12-14T02:05:15.413Z,-14.60
2022-12-14T02:15:21.065Z,-14.40
2022-12-14T02:26:18.366Z,-14.40
2022-12-14T02:36:33.086Z,-14.20
2022-12-14T02:46:50.053Z,-14.10
2022-12-14T02:57:02.421Z,-14.30
2022-12-14T03:07:34.012Z,-14.20
2022-12-14T03:17:40.396Z,-14.20
2022-12-14T03:27:50.163Z,-14.20
2022-12-14T03:38:00.843Z,-14.20
2022-12-14T03:48:16.777Z,-14.10
2022-12-14T03:58:33.762Z,-13.90
2022-12-14T04:08:43.267Z,-13.80
2022-12-14T04:19:01.008Z,-13.70
2022-12-14T04:29:26.518Z,-13.50
2022-12-14T04:39:40.198Z,-13.30
2022-12-14T04:49:51.338Z,-13.20
2022-12-14T04:59:57.677Z,-13.00
2022-12-14T05:10:07.075Z,-13.00
2022-12-14T05:20:19.188Z,-12.90
2022-12-14T05:30:23.171Z,-12.90
2022-12-14T05:40:28.418Z,-12.90
2022-12-14T05:50:32.548Z,-12.90
2022-12-14T06:00:38.202Z,-13.00
2022-12-14T06:10:41.987Z,-13.00
2022-12-14T06:20:47.089Z,-12.90
2022-12-14T06:30:51.003Z,-12.70
2022-12-14T06:40:56.408Z,-12.60
2022-12-14T06:51:02.179Z,-12.40
2022-12-14T07:01:10.078Z,-12.20
2022-12-14T07:11:17.335Z,-11.90
2022-12-14T07:21:23.788Z,-11.40
2022-12-14T07:31:30.754Z,-11.00
2022-12-14T07:41:36.532Z,-10.30
2022-12-14T07:51:44.393Z,-9.40
2022-12-14T08:01:50.037Z,-8.50
2022-12-14T08:11:55.359Z,-7.60
2022-12-14T08:22:03.325Z,-7.40
2022-12-14T08:32:07.422Z,-7.00
2022-12-14T08:42:13.652Z,-6.30
2022-12-14T08:52:19.092Z,-4.90
2022-12-14T09:02:25.915Z,-4.80
2022-12-14T09:12:30.259Z,-4.10
2022-12-14T09:22:36.598Z,-2.70
2022-12-14T09:32:41.439Z,-1.60
2022-12-14T09:43:00.945Z,-1.30
2022-12-14T09:53:08.833Z,-0.80
2022-12-14T10:03:39.614Z,-1.30
2022-12-14T10:14:03.085Z,-1.10
2022-12-14T10:24:15.297Z,-0.50
2022-12-14T10:34:22.699Z,-0.80
2022-12-14T10:44:35.933Z,-2.20
2022-12-14T10:54:46.445Z,-3.00
2022-12-14T11:04:54.883Z,-3.30
2022-12-14T11:15:04.080Z,-3.20
2022-12-14T11:25:36.147Z,-3.00
2022-12-14T11:35:39.981Z,-2.70
2022-12-14T11:45:52.679Z,-2.80
2022-12-14T11:56:00.042Z,-3.20
2022-12-14T12:06:08.980Z,-3.10
2022-12-14T12:16:18.096Z,-3.30
2022-12-14T12:26:29.280Z,-3.50
2022-12-14T12:36:34.343Z,-3.50
2022-12-14T12:47:22.396Z,-3.60
2022-12-14T12:57:16.559Z,-4.10
2022-12-14T13:07:32.222Z,-4.00
2022-12-14T13:17:44.646Z,-4.10
2022-12-14T13:28:24.796Z,-4.20
2022-12-14T13:38:56.254Z,-4.60
2022-12-14T13:49:06.364Z,-4.90
2022-12-14T13:59:28.815Z,-5.10
2022-12-14T14:10:02.454Z,-5.30
2022-12-14T14:20:35.345Z,-5.50
2022-12-14T14:30:45.417Z,-5.60
2022-12-14T14:41:15.510Z,-5.60
2022-12-14T14:51:24.362Z,-5.60
2022-12-14T15:01:31.144Z,-5.80
2022-12-14T15:11:46.530Z,-5.90
2022-12-14T15:21:56.254Z,-5.90
2022-12-14T15:32:04.319Z,-5.80
2022-12-14T15:42:17.406Z,-6.00
2022-12-14T15:52:30.587Z,-6.00
2022-12-14T16:02:39.353Z,-6.10
2022-12-14T16:12:47.495Z,-6.10
2022-12-14T16:23:07.130Z,-6.00
2022-12-14T16:33:20.463Z,-6.00
2022-12-14T16:43:35.130Z,-6.10
2022-12-14T16:53:50.209Z,-6.00
2022-12-14T17:04:02.835Z,-5.80
2022-12-14T17:14:08.550Z,-5.70
2022-12-14T17:24:18.090Z,-5.50
2022-12-14T17:34:26.517Z,-5.40
2022-12-14T17:44:30.492Z,-5.30
2022-12-14T17:54:36.207Z,-5.20
2022-12-14T18:04:40.214Z,-5.00
2022-12-14T18:14:45.540Z,-4.90
2022-12-14T18:24:49.829Z,-4.70
2022-12-14T18:34:56.128Z,-4.60
2022-12-14T18:45:00.146Z,-4.40
2022-12-14T18:55:06.768Z,-4.40
2022-12-14T19:05:11.351Z,-4.60
2022-12-14T19:15:23.102Z,-4.80
2022-12-14T19:25:27.777Z,-5.10
2022-12-14T19:35:35.702Z,-5.00
2022-12-14T19:45:41.875Z,-4.90
2022-12-14T19:55:53.430Z,-4.50
2022-12-14T20:06:02.214Z,-4.30
2022-12-14T20:16:09.161Z,-4.20
2022-12-14T20:26:17.225Z,-4.00
2022-12-14T20:36:23.519Z,-4.00
2022-12-14T20:46:31.197Z,-3.90
2022-12-14T20:56:37.149Z,-3.80
2022-12-14T21:06:43.922Z,-3.80
2022-12-14T21:16:49.795Z,-3.80
2022-12-14T21:26:53.658Z,-3.80
2022-12-14T21:36:58.965Z,-3.70
2022-12-14T21:47:03.627Z,-3.70
2022-12-14T21:57:25.267Z,-3.70
2022-12-14T22:07:33.167Z,-3.70
2022-12-14T22:17:38.508Z,-3.60
2022-12-14T22:27:42.154Z,-3.50
2022-12-14T22:37:47.578Z,-3.50
2022-12-14T22:47:51.546Z,-3.60
2022-12-14T22:57:56.808Z,-3.60
2022-12-14T23:08:00.583Z,-3.60
2022-12-14T23:18:25.531Z,-3.60
2022-12-14T23:28:50.482Z,-3.60
2022-12-14T23:39:13.198Z,-3.60
2022-12-14T23:49:34.669Z,-3.60
2022-12-14T23:59:56.886Z,-3.60
